Time;durP1;ratioP1;P1;durP2;ratioP2;P2;SDS_P1;SDS_P2;PMS_P1;PMS_P2;Temp;Humidity;BMP_temperature;BMP_pressure;BME280_temperature;BME280_humidity;BME280_pressure;Samples;Min_cycle;Max_cycle;Signal;HPM_P1;HPM_P2
2022/06/01 00:02:26;;;;;;;1.43;0.80;;;;;;;;;;5028390;28;20227;-68
2022/06/01 00:04:56;;;;;;;1.13;0.90;;;;;;;;;;5030152;28;20209;-68
2022/06/01 00:07:25;;;;;;;1.50;1.40;;;;;;;;;;5025123;28;20554;-69
2022/06/01 00:10:00;;;;;;;1.40;1.20;;;;;;;;;;5029498;28;20218;-69
2022/06/01 00:12:29;;;;;;;2.47;1.27;;;;;;;;;;5019668;28;20274;-69
2022/06/01 00:14:56;;;;;;;1.77;1.40;;;;;;;;;;5019989;28;20558;-67
2022/06/01 00:17:24;;;;;;;1.77;1.33;;;;;;;;;;5027667;28;20567;-67
2022/06/01 00:19:52;;;;;;;2.30;1.43;;;;;;;;;;5026079;28;20229;-68
2022/06/01 00:22:19;;;;;;;2.17;1.30;;;;;;;;;;5026542;28;20191;-67
2022/06/01 00:24:47;;;;;;;1.40;1.30;;;;;;;;;;5026720;28;20273;-67
2022/06/01 00:27:15;;;;;;;1.90;1.40;;;;;;;;;;5024724;28;20195;-68
2022/06/01 00:29:43;;;;;;;1.40;1.30;;;;;;;;;;5020524;28;20217;-67
2022/06/01 00:32:11;;;;;;;1.30;1.20;;;;;;;;;;5024519;28;20219;-67
2022/06/01 00:34:40;;;;;;;1.83;1.57;;;;;;;;;;5027507;28;20207;-67
2022/06/01 00:37:10;;;;;;;1.17;1.07;;;;;;;;;;5027020;28;20194;-67
2022/06/01 00:39:39;;;;;;;1.53;1.40;;;;;;;;;;5034304;28;20195;-68
2022/06/01 00:42:28;;;;;;;1.90;1.40;;;;;;;;;;5027550;28;20206;-67
2022/06/01 00:45:00;;;;;;;1.30;1.20;;;;;;;;;;5010156;28;20266;-67
2022/06/01 00:47:30;;;;;;;1.43;1.20;;;;;;;;;;5005470;28;20199;-67
2022/06/01 00:50:02;;;;;;;1.40;1.20;;;;;;;;;;5033143;28;20652;-66
2022/06/01 00:52:38;;;;;;;1.63;1.50;;;;;;;;;;5027271;28;20198;-67
2022/06/01 00:55:22;;;;;;;1.40;1.30;;;;;;;;;;5035474;28;20233;-69
2022/06/01 00:57:51;;;;;;;1.30;1.20;;;;;;;;;;5028577;28;20199;-68
2022/06/01 01:00:23;;;;;;;1.40;1.30;;;;;;;;;;5023209;28;20550;-67
2022/06/01 01:02:52;;;;;;;1.77;1.20;;;;;;;;;;5036758;28;20845;-67
2022/06/01 01:05:23;;;;;;;1.40;1.30;;;;;;;;;;5045204;28;20224;-68
2022/06/01 01:07:53;;;;;;;1.83;1.43;;;;;;;;;;5028379;28;20210;-68
2022/06/01 01:10:26;;;;;;;1.40;1.30;;;;;;;;;;5029773;28;20195;-69
2022/06/01 01:12:59;;;;;;;1.60;1.20;;;;;;;;;;5047775;28;20228;-68
2022/06/01 01:15:40;;;;;;;1.30;1.20;;;;;;;;;;5020780;28;20183;-69
2022/06/01 01:18:17;;;;;;;1.93;1.20;;;;;;;;;;5046647;28;20210;-67
2022/06/01 01:21:03;;;;;;;1.30;1.20;;;;;;;;;;5027691;28;20232;-68
2022/06/01 01:23:49;;;;;;;1.20;1.10;;;;;;;;;;5043813;28;20224;-68
2022/06/01 01:26:21;;;;;;;1.40;1.30;;;;;;;;;;5034095;28;20254;-68
2022/06/01 01:28:52;;;;;;;1.57;1.47;;;;;;;;;;5046266;28;20190;-69
2022/06/01 01:31:23;;;;;;;1.20;1.10;;;;;;;;;;5043420;28;20191;-69
2022/06/01 01:33:56;;;;;;;1.27;1.17;;;;;;;;;;5046444;28;20618;-69
2022/06/01 01:36:32;;;;;;;1.37;1.20;;;;;;;;;;5016383;28;20186;-69
2022/06/01 01:39:25;;;;;;;1.40;1.30;;;;;;;;;;5040523;28;20198;-69
2022/06/01 01:42:02;;;;;;;1.57;1.43;;;;;;;;;;5045387;28;20206;-69
2022/06/01 01:44:57;;;;;;;1.33;1.23;;;;;;;;;;5045254;28;20222;-68
2022/06/01 01:47:28;;;;;;;2.13;1.40;;;;;;;;;;5036139;28;20203;-68
2022/06/01 01:49:58;;;;;;;1.23;1.10;;;;;;;;;;5035740;28;20200;-69
2022/06/01 01:52:29;;;;;;;1.27;1.17;;;;;;;;;;5028978;28;20202;-68
2022/06/01 01:55:09;;;;;;;1.33;1.23;;;;;;;;;;5046554;28;20218;-68
2022/06/01 01:57:55;;;;;;;1.37;1.20;;;;;;;;;;5047252;28;20202;-68
2022/06/01 02:00:24;;;;;;;1.40;1.30;;;;;;;;;;5049843;28;20624;-68
2022/06/01 02:02:58;;;;;;;1.30;1.20;;;;;;;;;;5049564;28;20229;-68
2022/06/01 02:08:29;;;;;;;1.60;1.50;;;;;;;;;;5038823;28;20223;-69
2022/06/01 02:14:02;;;;;;;2.07;1.40;;;;;;;;;;5043870;28;20275;-68
2022/06/01 02:16:32;;;;;;;2.60;1.30;;;;;;;;;;5054559;28;20194;-68
2022/06/01 02:19:01;;;;;;;1.93;1.40;;;;;;;;;;5042813;28;20190;-69
2022/06/01 02:21:29;;;;;;;3.07;1.60;;;;;;;;;;5045598;28;20628;-68
2022/06/01 02:23:59;;;;;;;1.20;1.10;;;;;;;;;;5050339;28;20252;-68
2022/06/01 02:26:27;;;;;;;2.40;1.40;;;;;;;;;;5045865;28;20194;-68
2022/06/01 02:29:06;;;;;;;1.53;1.43;;;;;;;;;;5029631;28;20210;-68
2022/06/01 02:31:37;;;;;;;1.33;1.23;;;;;;;;;;5038412;28;20682;-68
2022/06/01 02:34:11;;;;;;;1.47;1.37;;;;;;;;;;5029970;28;20225;-69
2022/06/01 02:36:44;;;;;;;1.23;1.13;;;;;;;;;;5048719;28;20191;-68
2022/06/01 02:39:16;;;;;;;2.00;1.30;;;;;;;;;;5045905;28;20615;-68
2022/06/01 02:44:35;;;;;;;1.40;1.20;;;;;;;;;;5044140;28;20214;-69
2022/06/01 02:47:02;;;;;;;1.40;1.30;;;;;;;;;;5048152;28;20260;-68
2022/06/01 02:49:32;;;;;;;1.93;1.40;;;;;;;;;;5028141;28;20205;-68
2022/06/01 02:52:02;;;;;;;1.30;1.20;;;;;;;;;;5031792;28;20199;-68
2022/06/01 02:54:32;;;;;;;1.63;1.23;;;;;;;;;;5045557;28;20652;-68
2022/06/01 02:57:00;;;;;;;1.40;1.30;;;;;;;;;;5039722;28;20210;-67
2022/06/01 02:59:30;;;;;;;1.50;1.33;;;;;;;;;;5013946;28;20194;-68
2022/06/01 03:02:06;;;;;;;1.30;1.20;;;;;;;;;;5048514;28;20216;-68
2022/06/01 03:04:41;;;;;;;1.20;1.10;;;;;;;;;;5048112;28;20239;-68
2022/06/01 03:07:13;;;;;;;1.00;1.00;;;;;;;;;;5036874;28;20207;-68
2022/06/01 03:09:42;;;;;;;1.07;1.00;;;;;;;;;;5027828;28;20652;-68
2022/06/01 03:12:14;;;;;;;1.20;1.10;;;;;;;;;;5038624;28;20202;-68
2022/06/01 03:14:46;;;;;;;1.37;1.13;;;;;;;;;;5046375;28;20277;-68
2022/06/01 03:17:18;;;;;;;1.30;1.20;;;;;;;;;;5044874;28;20573;-68
2022/06/01 03:19:47;;;;;;;2.43;1.20;;;;;;;;;;5031245;28;20186;-68
2022/06/01 03:22:14;;;;;;;1.07;1.00;;;;;;;;;;5043375;28;20215;-68
2022/06/01 03:24:44;;;;;;;1.93;1.37;;;;;;;;;;5041935;28;20494;-68
2022/06/01 03:27:12;;;;;;;2.47;1.20;;;;;;;;;;5044850;28;20210;-67
2022/06/01 03:29:41;;;;;;;1.50;1.40;;;;;;;;;;5032028;28;20198;-67
2022/06/01 03:32:14;;;;;;;1.27;1.03;;;;;;;;;;5040113;28;20199;-67
2022/06/01 03:34:41;;;;;;;1.20;1.10;;;;;;;;;;5030222;28;20218;-68
2022/06/01 03:37:10;;;;;;;1.80;1.30;;;;;;;;;;5039107;28;20211;-67
2022/06/01 03:39:48;;;;;;;1.57;1.47;;;;;;;;;;5058118;28;20199;-67
2022/06/01 03:42:17;;;;;;;1.87;1.40;;;;;;;;;;5031135;28;20221;-69
2022/06/01 03:47:34;;;;;;;1.93;1.07;;;;;;;;;;5037725;28;20684;-68
2022/06/01 03:50:03;;;;;;;1.30;1.20;;;;;;;;;;5059451;28;20209;-68
2022/06/01 03:52:33;;;;;;;1.30;1.00;;;;;;;;;;5021391;28;20575;-68
2022/06/01 03:55:05;;;;;;;1.40;1.13;;;;;;;;;;5043933;28;20223;-68
2022/06/01 03:57:41;;;;;;;1.40;0.90;;;;;;;;;;5042090;28;20221;-65
2022/06/01 04:00:18;;;;;;;1.00;1.00;;;;;;;;;;5038206;28;20191;-65
2022/06/01 04:02:48;;;;;;;1.53;1.40;;;;;;;;;;5035869;28;20236;-65
2022/06/01 04:05:16;;;;;;;1.20;1.10;;;;;;;;;;5044285;28;20666;-67
2022/06/01 04:07:43;;;;;;;2.17;1.37;;;;;;;;;;5030215;28;20263;-67
2022/06/01 04:10:11;;;;;;;1.40;1.30;;;;;;;;;;5034023;28;20206;-67
2022/06/01 04:12:39;;;;;;;2.37;1.30;;;;;;;;;;5046554;28;20214;-68
2022/06/01 04:15:08;;;;;;;2.70;1.50;;;;;;;;;;5035996;28;20218;-66
2022/06/01 04:17:37;;;;;;;1.50;1.40;;;;;;;;;;5046798;28;20228;-66
2022/06/01 04:20:23;;;;;;;2.40;1.37;;;;;;;;;;5045427;28;20336;-65
2022/06/01 04:22:54;;;;;;;1.50;1.40;;;;;;;;;;5044017;28;20204;-65
2022/06/01 04:25:23;;;;;;;1.57;1.47;;;;;;;;;;5021573;28;20213;-67
2022/06/01 04:27:53;;;;;;;1.37;1.17;;;;;;;;;;5037913;28;20655;-67
2022/06/01 04:30:24;;;;;;;1.57;1.47;;;;;;;;;;5047572;28;20281;-67
2022/06/01 04:32:54;;;;;;;5.27;1.30;;;;;;;;;;5046326;28;20384;-67
2022/06/01 04:35:26;;;;;;;1.87;1.40;;;;;;;;;;5042235;28;20226;-67
2022/06/01 04:38:18;;;;;;;1.43;1.33;;;;;;;;;;5047226;28;20186;-67
2022/06/01 04:41:05;;;;;;;1.40;1.30;;;;;;;;;;5046561;28;20202;-67
2022/06/01 04:43:35;;;;;;;1.30;1.20;;;;;;;;;;5054905;28;20512;-68
2022/06/01 04:46:05;;;;;;;1.50;1.40;;;;;;;;;;5044922;28;20233;-65
2022/06/01 04:48:33;;;;;;;1.43;1.30;;;;;;;;;;5046415;28;20213;-66
2022/06/01 04:51:01;;;;;;;3.70;1.43;;;;;;;;;;5046872;28;20186;-68
2022/06/01 04:53:29;;;;;;;2.40;1.20;;;;;;;;;;5044421;28;20683;-68
2022/06/01 04:55:56;;;;;;;1.60;1.37;;;;;;;;;;5046710;28;20213;-66
2022/06/01 04:58:23;;;;;;;1.60;1.50;;;;;;;;;;5043302;28;20214;-66
2022/06/01 05:00:50;;;;;;;1.67;1.40;;;;;;;;;;5046248;28;20190;-66
2022/06/01 05:03:18;;;;;;;1.20;1.10;;;;;;;;;;5043091;28;20241;-65
2022/06/01 05:05:46;;;;;;;1.67;1.57;;;;;;;;;;5037565;28;20206;-67
2022/06/01 05:08:15;;;;;;;1.67;1.57;;;;;;;;;;5046863;28;20631;-68
2022/06/01 05:10:44;;;;;;;1.30;1.20;;;;;;;;;;5026759;28;20214;-67
2022/06/01 05:13:13;;;;;;;1.60;1.40;;;;;;;;;;5044180;28;20218;-70
2022/06/01 05:15:53;;;;;;;4.67;1.77;;;;;;;;;;5041259;28;20213;-71
2022/06/01 05:18:24;;;;;;;12.73;4.37;;;;;;;;;;5050574;28;20202;-69
2022/06/01 05:20:54;;;;;;;21.43;5.80;;;;;;;;;;5047428;28;20186;-69
2022/06/01 05:23:23;;;;;;;32.13;6.73;;;;;;;;;;5034123;28;20190;-68
2022/06/01 05:25:58;;;;;;;18.10;6.77;;;;;;;;;;5021788;28;20203;-69
2022/06/01 05:28:31;;;;;;;16.17;6.07;;;;;;;;;;5036506;28;20276;-69
2022/06/01 05:31:06;;;;;;;20.63;6.93;;;;;;;;;;5025860;28;20232;-69
2022/06/01 05:33:35;;;;;;;18.93;6.17;;;;;;;;;;5051200;28;20274;-69
2022/06/01 05:36:05;;;;;;;21.70;5.60;;;;;;;;;;5032553;28;20280;-68
2022/06/01 05:38:35;;;;;;;15.83;6.10;;;;;;;;;;5048924;28;20201;-67
2022/06/01 05:41:04;;;;;;;17.30;5.37;;;;;;;;;;5030738;28;20199;-67
2022/06/01 05:43:35;;;;;;;11.97;5.40;;;;;;;;;;5033312;28;20286;-67
2022/06/01 05:46:04;;;;;;;13.30;5.30;;;;;;;;;;5028788;28;20887;-67
2022/06/01 05:48:33;;;;;;;15.47;4.83;;;;;;;;;;5030966;28;20195;-67
2022/06/01 05:51:02;;;;;;;16.90;5.80;;;;;;;;;;5043801;28;20209;-69
2022/06/01 05:53:31;;;;;;;16.43;6.03;;;;;;;;;;5029780;28;20191;-68
2022/06/01 05:56:01;;;;;;;25.87;6.70;;;;;;;;;;5028745;28;20806;-69
2022/06/01 05:58:32;;;;;;;32.10;6.47;;;;;;;;;;5041407;28;20225;-69
2022/06/01 06:01:05;;;;;;;38.97;8.27;;;;;;;;;;5014000;28;20218;-63
2022/06/01 06:03:35;;;;;;;33.50;8.40;;;;;;;;;;5041729;28;20707;-66
2022/06/01 06:06:18;;;;;;;31.87;8.50;;;;;;;;;;5044230;28;20262;-66
2022/06/01 06:08:51;;;;;;;28.90;7.50;;;;;;;;;;5044231;28;20205;-66
2022/06/01 06:11:36;;;;;;;34.20;7.13;;;;;;;;;;5028781;28;20233;-70
2022/06/01 06:14:06;;;;;;;27.30;6.77;;;;;;;;;;5034359;28;20643;-69
2022/06/01 06:16:35;;;;;;;26.57;7.10;;;;;;;;;;5020701;28;20218;-69
2022/06/01 06:19:03;;;;;;;33.27;6.00;;;;;;;;;;5026045;28;20195;-69
2022/06/01 06:21:33;;;;;;;26.60;6.73;;;;;;;;;;5043303;28;20210;-69
2022/06/01 06:24:08;;;;;;;23.20;5.50;;;;;;;;;;5030257;28;20573;-68
2022/06/01 06:26:39;;;;;;;11.30;4.97;;;;;;;;;;5048573;28;20230;-66
2022/06/01 06:29:11;;;;;;;23.03;5.03;;;;;;;;;;5044838;28;20209;-65
2022/06/01 06:31:41;;;;;;;18.20;5.37;;;;;;;;;;5042977;28;20206;-69
2022/06/01 06:34:16;;;;;;;18.93;5.30;;;;;;;;;;5026904;28;20211;-69
2022/06/01 06:36:46;;;;;;;13.03;4.83;;;;;;;;;;5028221;28;20217;-69
2022/06/01 06:39:15;;;;;;;18.73;4.70;;;;;;;;;;5044822;28;20195;-70
2022/06/01 06:41:43;;;;;;;18.60;4.90;;;;;;;;;;5041548;28;20661;-65
2022/06/01 06:44:10;;;;;;;14.60;4.57;;;;;;;;;;5043207;28;20581;-65
2022/06/01 06:46:37;;;;;;;15.20;4.30;;;;;;;;;;5044313;28;20256;-66
2022/06/01 06:49:05;;;;;;;11.67;4.37;;;;;;;;;;5045094;28;20198;-66
2022/06/01 06:51:40;;;;;;;11.97;4.13;;;;;;;;;;5028350;28;20202;-65
2022/06/01 06:54:10;;;;;;;9.87;4.50;;;;;;;;;;5046353;28;20228;-66
2022/06/01 06:56:41;;;;;;;11.70;3.23;;;;;;;;;;5047866;28;20210;-65
2022/06/01 06:59:12;;;;;;;9.53;3.30;;;;;;;;;;5024793;28;20203;-66
2022/06/01 07:01:40;;;;;;;10.90;3.80;;;;;;;;;;5048456;28;20202;-66
2022/06/01 07:04:16;;;;;;;6.53;3.00;;;;;;;;;;5028212;28;20864;-65
2022/06/01 07:06:48;;;;;;;8.77;3.40;;;;;;;;;;5019880;28;20649;-65
2022/06/01 07:09:19;;;;;;;7.53;3.03;;;;;;;;;;5021325;28;20202;-65
2022/06/01 07:11:56;;;;;;;7.50;3.37;;;;;;;;;;5008860;28;20214;-65
2022/06/01 07:14:26;;;;;;;6.50;3.03;;;;;;;;;;5028184;28;20211;-65
2022/06/01 07:16:53;;;;;;;8.57;3.63;;;;;;;;;;5027977;28;20245;-65
2022/06/01 07:19:21;;;;;;;9.27;3.10;;;;;;;;;;5021960;28;20821;-65
2022/06/01 07:21:48;;;;;;;11.60;3.50;;;;;;;;;;5026521;28;20222;-66
2022/06/01 07:24:15;;;;;;;11.67;3.47;;;;;;;;;;5028612;28;20221;-65
2022/06/01 07:26:44;;;;;;;10.83;3.60;;;;;;;;;;5029304;28;20207;-69
2022/06/01 07:29:11;;;;;;;6.63;2.97;;;;;;;;;;5033287;28;20207;-68
2022/06/01 07:31:39;;;;;;;15.50;4.30;;;;;;;;;;5024566;28;20195;-66
2022/06/01 07:34:11;;;;;;;19.60;3.63;;;;;;;;;;5019189;28;20215;-66
2022/06/01 07:36:43;;;;;;;9.33;3.13;;;;;;;;;;5028735;28;20632;-66
2022/06/01 07:45:07;;;;;;;9.87;3.10;;;;;;;;;;5025704;28;20689;-65
2022/06/01 07:47:35;;;;;;;15.40;2.90;;;;;;;;;;5024477;28;20555;-65
2022/06/01 07:50:25;;;;;;;13.80;3.60;;;;;;;;;;5017466;28;20226;-65
2022/06/01 07:53:12;;;;;;;21.77;3.33;;;;;;;;;;5016100;28;20210;-65
2022/06/01 07:55:41;;;;;;;12.80;3.23;;;;;;;;;;5027114;28;20249;-65
2022/06/01 07:58:09;;;;;;;8.37;3.23;;;;;;;;;;5024433;28;20276;-66
2022/06/01 08:00:43;;;;;;;13.10;3.07;;;;;;;;;;5010427;28;20608;-65
2022/06/01 08:03:13;;;;;;;13.80;3.47;;;;;;;;;;5035446;28;20273;-65
2022/06/01 08:05:40;;;;;;;7.90;2.67;;;;;;;;;;5029883;28;20198;-68
2022/06/01 08:08:08;;;;;;;8.43;3.33;;;;;;;;;;5047070;28;20232;-68
2022/06/01 08:10:36;;;;;;;11.17;3.00;;;;;;;;;;5047125;28;20207;-66
2022/06/01 08:13:06;;;;;;;14.73;3.20;;;;;;;;;;5046842;28;20202;-66
2022/06/01 08:15:47;;;;;;;13.23;2.67;;;;;;;;;;5042090;28;20217;-67
2022/06/01 08:18:22;;;;;;;8.20;2.87;;;;;;;;;;5046172;28;20202;-68
2022/06/01 08:20:49;;;;;;;10.17;2.60;;;;;;;;;;5047788;28;20201;-68
2022/06/01 08:23:21;;;;;;;5.57;2.20;;;;;;;;;;5042130;28;20206;-68
2022/06/01 08:25:49;;;;;;;8.20;2.40;;;;;;;;;;5042594;28;20283;-66
2022/06/01 08:28:17;;;;;;;7.57;2.37;;;;;;;;;;5043672;28;20264;-66
2022/06/01 08:30:45;;;;;;;10.30;2.93;;;;;;;;;;5050746;28;20182;-66
2022/06/01 08:33:17;;;;;;;8.10;2.23;;;;;;;;;;5036579;28;20544;-66
2022/06/01 08:35:52;;;;;;;12.17;2.40;;;;;;;;;;5021088;28;20242;-65
2022/06/01 08:38:20;;;;;;;6.77;1.87;;;;;;;;;;5045857;28;20196;-65
2022/06/01 08:41:06;;;;;;;11.43;2.30;;;;;;;;;;5043517;28;20237;-66
2022/06/01 08:43:40;;;;;;;7.30;1.93;;;;;;;;;;5044012;28;20190;-66
2022/06/01 08:46:08;;;;;;;6.27;2.00;;;;;;;;;;5044433;28;20220;-68
2022/06/01 08:48:43;;;;;;;6.00;1.87;;;;;;;;;;5037950;28;20268;-68
2022/06/01 08:51:14;;;;;;;6.40;2.10;;;;;;;;;;5044252;28;20204;-66
2022/06/01 08:53:44;;;;;;;5.07;1.70;;;;;;;;;;5046093;28;20570;-66
2022/06/01 08:56:17;;;;;;;5.97;1.80;;;;;;;;;;5043593;28;20659;-68
2022/06/01 08:59:03;;;;;;;8.53;2.53;;;;;;;;;;5044064;28;20674;-68
2022/06/01 09:01:52;;;;;;;7.40;2.37;;;;;;;;;;5028143;28;20261;-65
2022/06/01 09:04:32;;;;;;;6.33;1.90;;;;;;;;;;5024246;28;20215;-65
2022/06/01 09:07:06;;;;;;;7.83;2.10;;;;;;;;;;4995038;28;20206;-65
2022/06/01 09:09:42;;;;;;;7.63;2.37;;;;;;;;;;5008172;28;20237;-65
2022/06/01 09:12:09;;;;;;;8.00;2.40;;;;;;;;;;5026319;28;20607;-68
2022/06/01 09:14:39;;;;;;;6.10;2.37;;;;;;;;;;5026176;28;20195;-68
2022/06/01 09:17:06;;;;;;;8.23;2.43;;;;;;;;;;5001811;28;20215;-68
2022/06/01 09:22:42;;;;;;;8.17;2.80;;;;;;;;;;5022450;28;20215;-67
2022/06/01 09:25:09;;;;;;;11.03;2.57;;;;;;;;;;5017404;28;20232;-66
2022/06/01 09:27:40;;;;;;;9.00;3.13;;;;;;;;;;5022742;28;20198;-66
2022/06/01 09:30:19;;;;;;;10.93;3.10;;;;;;;;;;5026117;28;20202;-67
2022/06/01 09:33:00;;;;;;;11.47;2.10;;;;;;;;;;5022363;28;20654;-68
2022/06/01 09:35:28;;;;;;;18.90;2.87;;;;;;;;;;5011587;28;20655;-68
2022/06/01 09:37:55;;;;;;;11.37;2.53;;;;;;;;;;5029986;28;20227;-68
2022/06/01 09:40:33;;;;;;;8.90;2.50;;;;;;;;;;5025931;28;20202;-67
2022/06/01 09:43:00;;;;;;;7.07;2.40;;;;;;;;;;5017569;28;20199;-68
2022/06/01 09:45:33;;;;;;;6.40;2.30;;;;;;;;;;5020140;28;20222;-68
2022/06/01 09:48:23;;;;;;;6.00;2.40;;;;;;;;;;5022461;28;20216;-66
2022/06/01 09:51:17;;;;;;;6.97;1.90;;;;;;;;;;5025402;28;20783;-66
2022/06/01 09:53:55;;;;;;;6.90;1.87;;;;;;;;;;5025610;28;20245;-65
2022/06/01 09:56:33;;;;;;;5.03;1.70;;;;;;;;;;5032772;28;20207;-65
2022/06/01 10:07:43;;;;;;;20.47;3.50;;;;;;;;;;5040229;28;20203;-67
2022/06/01 10:10:20;;;;;;;30.67;4.83;;;;;;;;;;5040091;28;20264;-67
2022/06/01 10:12:50;;;;;;;32.03;5.10;;;;;;;;;;5037891;28;20186;-67
2022/06/01 10:15:37;;;;;;;25.90;4.77;;;;;;;;;;5032175;28;20182;-67
2022/06/01 10:18:20;;;;;;;20.47;3.40;;;;;;;;;;5042195;28;20201;-68
2022/06/01 10:20:50;;;;;;;20.40;3.27;;;;;;;;;;5027392;28;20284;-65
2022/06/01 10:23:43;;;;;;;12.50;2.40;;;;;;;;;;5037280;28;20641;-65
2022/06/01 10:26:14;;;;;;;19.63;2.80;;;;;;;;;;5033452;28;20273;-65
2022/06/01 10:28:44;;;;;;;15.23;2.90;;;;;;;;;;5052869;28;20198;-65
2022/06/01 10:31:19;;;;;;;17.60;2.73;;;;;;;;;;5046070;28;20198;-67
2022/06/01 10:33:50;;;;;;;15.37;2.90;;;;;;;;;;5039297;28;20221;-66
2022/06/01 10:36:22;;;;;;;18.73;3.40;;;;;;;;;;5050028;28;20202;-66
2022/06/01 10:39:17;;;;;;;20.33;3.83;;;;;;;;;;5048159;28;20610;-67
2022/06/01 10:42:00;;;;;;;18.50;3.57;;;;;;;;;;5045237;28;20186;-66
2022/06/01 10:44:43;;;;;;;17.70;4.10;;;;;;;;;;5049021;28;20287;-66
2022/06/01 10:47:40;;;;;;;12.93;3.47;;;;;;;;;;5051175;28;20272;-66
2022/06/01 10:50:19;;;;;;;15.30;3.70;;;;;;;;;;4918575;29;20696;-67
2022/06/01 10:53:24;;;;;;;16.87;3.87;;;;;;;;;;5024997;28;20248;-67
2022/06/01 10:55:59;;;;;;;20.57;4.93;;;;;;;;;;5003837;28;20240;-64
2022/06/01 10:58:29;;;;;;;18.73;4.37;;;;;;;;;;5040695;28;20213;-64
2022/06/01 11:01:19;;;;;;;15.23;3.90;;;;;;;;;;5021756;28;20209;-64
2022/06/01 11:04:07;;;;;;;16.63;3.70;;;;;;;;;;5045004;28;20296;-65
2022/06/01 11:06:50;;;;;;;14.77;3.63;;;;;;;;;;5046898;28;20190;-67
2022/06/01 11:09:30;;;;;;;19.63;3.77;;;;;;;;;;5032531;28;20234;-67
2022/06/01 11:12:02;;;;;;;12.90;3.30;;;;;;;;;;5025747;28;20210;-65
2022/06/01 11:14:51;;;;;;;17.30;3.77;;;;;;;;;;5039286;28;20202;-65
2022/06/01 11:17:45;;;;;;;11.40;3.77;;;;;;;;;;5043038;28;20234;-65
2022/06/01 11:20:35;;;;;;;15.93;3.40;;;;;;;;;;5043559;28;20206;-64
2022/06/01 11:23:40;;;;;;;12.07;2.80;;;;;;;;;;5025614;28;20194;-64
2022/06/01 11:26:29;;;;;;;10.17;3.10;;;;;;;;;;5037584;28;20213;-64
2022/06/01 11:29:10;;;;;;;6.23;2.00;;;;;;;;;;5049277;28;20198;-65
2022/06/01 11:31:40;;;;;;;9.00;2.80;;;;;;;;;;5046795;28;20198;-64
2022/06/01 11:34:14;;;;;;;7.67;2.47;;;;;;;;;;5043717;28;20230;-65
2022/06/01 11:37:28;;;;;;;6.93;2.17;;;;;;;;;;5045479;28;20862;-65
2022/06/01 11:40:08;;;;;;;8.57;2.87;;;;;;;;;;4970066;28;20193;-66
2022/06/01 11:42:38;;;;;;;7.57;2.17;;;;;;;;;;4968660;28;20638;-65
2022/06/01 11:45:24;;;;;;;9.43;2.30;;;;;;;;;;4984456;28;20557;-65
2022/06/01 11:47:57;;;;;;;7.47;2.63;;;;;;;;;;4983632;28;20561;-64
2022/06/01 11:50:48;;;;;;;7.33;2.20;;;;;;;;;;4970522;28;20235;-64
2022/06/01 11:53:31;;;;;;;5.80;1.90;;;;;;;;;;4970419;28;20663;-65
2022/06/01 11:56:19;;;;;;;5.63;1.80;;;;;;;;;;5041630;28;20554;-66
2022/06/01 11:59:08;;;;;;;5.17;1.83;;;;;;;;;;5024188;28;20217;-67
2022/06/01 12:01:49;;;;;;;6.40;1.77;;;;;;;;;;5041869;28;20194;-65
2022/06/01 12:04:38;;;;;;;4.30;1.73;;;;;;;;;;5028155;28;20533;-65
2022/06/01 12:07:17;;;;;;;4.93;1.83;;;;;;;;;;5016660;28;20771;-64
2022/06/01 12:10:11;;;;;;;5.13;2.03;;;;;;;;;;5039016;28;20210;-64
2022/06/01 12:12:47;;;;;;;3.53;1.73;;;;;;;;;;5046681;28;20206;-67
2022/06/01 12:15:41;;;;;;;6.70;1.90;;;;;;;;;;5041609;28;20221;-66
2022/06/01 12:18:14;;;;;;;6.43;1.60;;;;;;;;;;5018894;28;20233;-65
2022/06/01 12:20:52;;;;;;;10.77;2.13;;;;;;;;;;5047606;28;20198;-67
2022/06/01 12:29:08;;;;;;;6.40;2.13;;;;;;;;;;5050881;28;20199;-63
2022/06/01 12:32:00;;;;;;;7.30;2.03;;;;;;;;;;5045084;28;20210;-63
2022/06/01 12:34:44;;;;;;;5.77;1.73;;;;;;;;;;5038460;28;20210;-63
2022/06/01 12:37:24;;;;;;;5.43;1.80;;;;;;;;;;5030247;28;20224;-64
2022/06/01 12:40:09;;;;;;;3.97;1.50;;;;;;;;;;5021169;28;20205;-65
2022/06/01 12:42:55;;;;;;;6.83;1.80;;;;;;;;;;5047233;28;20198;-64
2022/06/01 12:45:28;;;;;;;5.50;1.53;;;;;;;;;;5041645;28;20185;-65
2022/06/01 12:48:09;;;;;;;6.37;1.90;;;;;;;;;;5032910;28;20210;-66
2022/06/01 12:50:50;;;;;;;4.17;1.93;;;;;;;;;;5051571;28;20211;-65
2022/06/01 12:53:27;;;;;;;5.47;1.50;;;;;;;;;;5048808;28;20210;-66
2022/06/01 12:56:07;;;;;;;2.63;1.47;;;;;;;;;;5028881;28;20584;-66
2022/06/01 12:58:40;;;;;;;4.53;1.30;;;;;;;;;;5042120;28;20208;-65
2022/06/01 13:01:16;;;;;;;4.77;1.93;;;;;;;;;;5042927;28;20193;-67
2022/06/01 13:03:51;;;;;;;4.07;1.53;;;;;;;;;;5029675;28;20248;-66
2022/06/01 13:06:33;;;;;;;6.03;1.30;;;;;;;;;;5047272;28;20298;-66
2022/06/01 13:09:06;;;;;;;3.97;1.37;;;;;;;;;;5046098;28;20206;-66
2022/06/01 13:11:38;;;;;;;4.57;1.60;;;;;;;;;;5029549;28;20658;-66
2022/06/01 13:14:13;;;;;;;5.33;1.40;;;;;;;;;;5045616;28;20205;-66
2022/06/01 13:16:47;;;;;;;3.33;1.30;;;;;;;;;;5040075;28;20220;-64
2022/06/01 13:19:34;;;;;;;1.47;1.30;;;;;;;;;;5041663;28;20206;-64
2022/06/01 13:22:06;;;;;;;2.07;1.40;;;;;;;;;;5037584;28;20238;-66
2022/06/01 13:24:41;;;;;;;2.10;1.20;;;;;;;;;;5044364;28;20222;-65
2022/06/01 13:27:12;;;;;;;2.47;1.30;;;;;;;;;;5046755;28;20227;-64
2022/06/01 13:29:43;;;;;;;2.40;1.33;;;;;;;;;;5041084;28;20195;-64
2022/06/01 13:32:14;;;;;;;1.90;1.40;;;;;;;;;;5012581;28;20194;-64
2022/06/01 13:34:50;;;;;;;1.53;1.00;;;;;;;;;;5038181;28;20232;-66
2022/06/01 13:37:31;;;;;;;1.50;1.00;;;;;;;;;;5040345;28;20233;-64
2022/06/01 13:40:10;;;;;;;1.57;1.13;;;;;;;;;;5049777;28;20205;-64
2022/06/01 13:42:39;;;;;;;1.80;1.20;;;;;;;;;;5035985;28;20198;-64
2022/06/01 13:45:18;;;;;;;2.73;1.10;;;;;;;;;;5043736;28;20245;-69
2022/06/01 13:47:52;;;;;;;2.90;1.20;;;;;;;;;;5027240;28;20647;-68
2022/06/01 13:50:39;;;;;;;1.80;1.20;;;;;;;;;;5044642;28;20224;-68
2022/06/01 13:53:31;;;;;;;3.00;1.13;;;;;;;;;;5026473;28;20297;-69
2022/06/01 13:56:15;;;;;;;2.93;1.30;;;;;;;;;;5046682;28;20287;-67
2022/06/01 13:59:02;;;;;;;3.20;1.10;;;;;;;;;;5046668;28;20207;-67
2022/06/01 14:01:33;;;;;;;1.00;0.90;;;;;;;;;;5044263;28;20213;-64
2022/06/01 14:04:15;;;;;;;1.60;1.03;;;;;;;;;;5051582;28;20234;-64
2022/06/01 14:06:46;;;;;;;1.50;1.03;;;;;;;;;;5036133;28;20195;-68
2022/06/01 14:09:16;;;;;;;1.60;1.00;;;;;;;;;;5041416;28;20209;-70
2022/06/01 14:11:46;;;;;;;1.60;1.13;;;;;;;;;;5046002;28;20203;-69
2022/06/01 14:14:21;;;;;;;2.03;1.20;;;;;;;;;;5053417;28;20620;-69
2022/06/01 14:16:54;;;;;;;2.23;1.10;;;;;;;;;;5052106;28;20240;-66
2022/06/01 14:19:24;;;;;;;1.30;1.20;;;;;;;;;;5048984;28;20615;-66
2022/06/01 14:21:59;;;;;;;1.50;1.07;;;;;;;;;;5042014;28;20551;-65
2022/06/01 14:28:28;;;;;;;2.10;1.20;;;;;;;;;;5049627;28;20671;-65
2022/06/01 14:30:07;;;;;;;1.27;1.17;;;;;;;;;;5043601;28;20190;-65
2022/06/01 14:32:38;;;;;;;1.20;0.80;;;;;;;;;;5055808;28;20226;-65
2022/06/01 14:35:07;;;;;;;1.10;0.90;;;;;;;;;;5045592;28;20210;-65
2022/06/01 14:37:34;;;;;;;1.00;0.90;;;;;;;;;;5046772;28;20588;-65
2022/06/01 14:40:01;;;;;;;1.70;0.90;;;;;;;;;;5052351;28;20654;-65
2022/06/01 14:42:33;;;;;;;1.10;0.93;;;;;;;;;;5047499;28;20224;-65
2022/06/01 14:45:02;;;;;;;2.47;1.00;;;;;;;;;;5037893;28;20627;-66
2022/06/01 14:47:31;;;;;;;1.10;1.00;;;;;;;;;;5024945;28;20217;-65
2022/06/01 14:50:06;;;;;;;1.23;0.73;;;;;;;;;;5031788;28;20738;-68
2022/06/01 14:52:34;;;;;;;1.13;1.00;;;;;;;;;;5047524;28;20674;-69
2022/06/01 14:55:06;;;;;;;0.77;0.73;;;;;;;;;;5045203;28;20198;-69
2022/06/01 14:57:34;;;;;;;0.70;0.70;;;;;;;;;;5014759;28;20265;-69
2022/06/01 15:00:06;;;;;;;1.23;1.13;;;;;;;;;;5047168;28;20206;-69
2022/06/01 15:02:41;;;;;;;1.37;1.00;;;;;;;;;;5034424;28;20321;-68
2022/06/01 15:05:10;;;;;;;0.83;0.83;;;;;;;;;;5053850;28;20201;-68
2022/06/01 15:07:38;;;;;;;1.53;0.70;;;;;;;;;;5047748;28;20758;-68
2022/06/01 15:10:10;;;;;;;1.40;1.00;;;;;;;;;;5023923;28;20737;-73
2022/06/01 15:12:40;;;;;;;1.13;0.80;;;;;;;;;;5046352;28;20589;-68
2022/06/01 15:15:09;;;;;;;0.97;0.77;;;;;;;;;;5044670;28;20191;-68
2022/06/01 15:17:39;;;;;;;0.90;0.87;;;;;;;;;;5046617;28;20226;-68
2022/06/01 15:20:15;;;;;;;0.83;0.80;;;;;;;;;;5025431;28;20534;-67
2022/06/01 15:22:46;;;;;;;1.43;0.90;;;;;;;;;;5041517;28;20217;-68
2022/06/01 15:25:17;;;;;;;1.50;0.90;;;;;;;;;;5029092;28;20249;-65
2022/06/01 15:27:50;;;;;;;1.20;0.87;;;;;;;;;;5045466;28;20223;-65
2022/06/01 15:41:44;;;;;;;2.27;1.00;;;;;;;;;;5047757;28;20194;-66
2022/06/01 15:44:13;;;;;;;1.07;0.70;;;;;;;;;;5030888;28;20194;-66
2022/06/01 15:46:42;;;;;;;1.10;0.90;;;;;;;;;;5036008;28;20214;-68
2022/06/01 15:49:11;;;;;;;0.77;0.77;;;;;;;;;;5047260;28;20640;-68
2022/06/01 15:51:39;;;;;;;0.60;0.60;;;;;;;;;;5045658;28;20194;-65
2022/06/01 15:54:07;;;;;;;1.23;0.80;;;;;;;;;;5048374;28;20206;-64
2022/06/01 15:56:34;;;;;;;0.80;0.80;;;;;;;;;;5046893;28;20195;-65
2022/06/01 15:59:02;;;;;;;0.97;0.83;;;;;;;;;;5049972;28;20224;-65
2022/06/01 16:01:31;;;;;;;0.90;0.77;;;;;;;;;;5037964;28;20221;-65
2022/06/01 16:03:59;;;;;;;0.90;0.70;;;;;;;;;;5047008;28;20717;-65
2022/06/01 16:06:46;;;;;;;1.27;0.90;;;;;;;;;;5042684;28;20209;-65
2022/06/01 16:09:27;;;;;;;0.80;0.60;;;;;;;;;;5038660;28;20491;-65
2022/06/01 16:11:59;;;;;;;0.80;0.70;;;;;;;;;;5045028;28;20191;-64